createdAt,value
2023-01-01T00:01:22.449Z,93.83
2023-01-01T00:03:25.852Z,93.87
2023-01-01T00:05:29.866Z,93.65
2023-01-01T00:07:34.545Z,93.85
2023-01-01T00:09:55.121Z,93.64
2023-01-01T00:11:58.351Z,92.90
2023-01-01T00:14:05.589Z,92.89
2023-01-01T00:16:14.274Z,93.56
2023-01-01T00:18:17.411Z,94.59
2023-01-01T00:20:20.867Z,94.42
2023-01-01T00:24:48.520Z,93.99
2023-01-01T00:26:51.627Z,94.14
2023-01-01T00:28:55.408Z,93.44
2023-01-01T00:30:58.413Z,94.00
2023-01-01T00:33:01.520Z,93.06
2023-01-01T00:35:04.877Z,92.99
2023-01-01T00:37:07.912Z,93.17
2023-01-01T00:39:11.553Z,93.22
2023-01-01T00:41:17.051Z,93.67
2023-01-01T00:43:20.189Z,93.52
2023-01-01T00:45:23.464Z,93.63
2023-01-01T00:47:26.491Z,95.84
2023-01-01T00:49:29.608Z,95.18
2023-01-01T00:51:36.938Z,93.97
2023-01-01T00:53:40.681Z,94.78
2023-01-01T00:55:44.114Z,94.25
2023-01-01T00:57:48.938Z,94.45
2023-01-01T00:59:52.241Z,93.93
2023-01-01T01:01:55.603Z,95.18
2023-01-01T01:03:58.739Z,94.95
2023-01-01T01:06:10.397Z,95.65
2023-01-01T01:08:13.460Z,94.10
2023-01-01T01:10:16.968Z,95.20
2023-01-01T01:12:20.657Z,94.71
2023-01-01T01:14:25.386Z,94.71
2023-01-01T01:16:29.953Z,94.80
2023-01-01T01:18:33.272Z,94.45
2023-01-01T01:20:36.464Z,94.75
2023-01-01T01:22:39.727Z,95.02
2023-01-01T01:24:43.311Z,94.60
2023-01-01T01:26:46.617Z,95.82
2023-01-01T01:28:50.411Z,95.20
2023-01-01T01:30:54.969Z,94.83
2023-01-01T01:32:58.240Z,93.83
2023-01-01T01:35:01.779Z,95.34
2023-01-01T01:37:05.365Z,95.27
2023-01-01T01:39:08.457Z,93.27
2023-01-01T01:41:26.139Z,93.92
2023-01-01T01:43:47.222Z,94.13
2023-01-01T01:45:50.725Z,95.80
2023-01-01T01:47:56.975Z,95.84
2023-01-01T01:50:08.323Z,96.09
2023-01-01T01:52:12.081Z,95.45
2023-01-01T01:54:17.742Z,96.16
2023-01-01T01:56:22.906Z,95.84
2023-01-01T01:58:26.941Z,94.25
2023-01-01T02:00:31.455Z,93.48
2023-01-01T02:02:38.409Z,93.92
2023-01-01T02:04:43.913Z,94.17
2023-01-01T02:06:48.098Z,94.77
2023-01-01T02:08:53.171Z,95.89
2023-01-01T02:10:57.596Z,96.17
2023-01-01T02:13:02.539Z,96.72
2023-01-01T02:15:10.185Z,96.70
2023-01-01T02:17:17.910Z,96.04
2023-01-01T02:19:34.589Z,95.06
2023-01-01T02:21:51.687Z,95.96
2023-01-01T02:24:32.214Z,95.44
2023-01-01T02:26:51.093Z,95.80
2023-01-01T02:29:01.627Z,96.71
2023-01-01T02:31:05.554Z,97.02
2023-01-01T02:33:12.898Z,96.29
2023-01-01T02:35:35.390Z,96.84
2023-01-01T02:37:38.890Z,96.27
2023-01-01T02:39:47.148Z,95.87
2023-01-01T02:41:54.218Z,97.08
2023-01-01T02:46:06.872Z,96.33
2023-01-01T02:48:40.113Z,96.43
2023-01-01T02:50:44.074Z,96.77
2023-01-01T02:52:54.496Z,97.74
2023-01-01T02:55:03.339Z,96.43
2023-01-01T02:57:11.450Z,97.64
2023-01-01T02:59:39.918Z,96.60
2023-01-01T03:01:47.576Z,95.78
2023-01-01T03:04:01.766Z,94.53
2023-01-01T03:06:27.102Z,93.61
2023-01-01T03:08:35.701Z,93.26
2023-01-01T03:10:44.168Z,92.50
2023-01-01T03:12:52.308Z,91.83
2023-01-01T03:15:00.211Z,91.12
2023-01-01T03:17:06.569Z,92.11
2023-01-01T03:19:13.464Z,91.23
2023-01-01T03:23:28.172Z,89.34
2023-01-01T03:25:34.440Z,89.50
2023-01-01T03:27:42.657Z,89.14
2023-01-01T03:29:48.068Z,87.76
2023-01-01T03:31:54.671Z,88.08
2023-01-01T03:34:03.239Z,87.30
2023-01-01T03:36:08.951Z,86.34
2023-01-01T03:38:16.004Z,86.83
2023-01-01T03:40:20.896Z,86.51
2023-01-01T03:42:27.908Z,86.76
2023-01-01T03:44:34.926Z,86.06
2023-01-01T03:46:38.962Z,85.73
2023-01-01T03:49:02.545Z,85.92
2023-01-01T03:51:12.660Z,85.93
2023-01-01T03:53:23.542Z,85.71
2023-01-01T03:55:30.377Z,85.48
2023-01-01T03:57:38.626Z,85.60
2023-01-01T03:59:45.552Z,85.38
2023-01-01T04:01:50.724Z,85.15
2023-01-01T04:03:55.448Z,85.17
2023-01-01T04:05:58.581Z,84.58
2023-01-01T04:08:02.339Z,85.03
2023-01-01T04:10:17.344Z,84.86
2023-01-01T04:12:21.631Z,84.81
2023-01-01T04:14:29.327Z,84.92
2023-01-01T04:16:32.421Z,84.98
2023-01-01T04:18:35.479Z,85.33
2023-01-01T04:20:40.046Z,85.17
2023-01-01T04:22:43.033Z,85.00
2023-01-01T04:24:45.985Z,85.05
2023-01-01T04:26:49.873Z,84.21
2023-01-01T04:28:52.961Z,84.86
2023-01-01T04:32:57.910Z,84.94
2023-01-01T04:35:01.478Z,84.48
2023-01-01T04:37:09.760Z,84.80
2023-01-01T04:39:16.033Z,84.74
2023-01-01T04:41:19.038Z,84.83
2023-01-01T04:43:22.172Z,84.54
2023-01-01T04:45:25.581Z,84.57
2023-01-01T04:47:28.782Z,84.84
2023-01-01T04:49:31.939Z,84.07
2023-01-01T04:51:35.059Z,84.27
2023-01-01T04:53:39.804Z,84.61
2023-01-01T04:55:43.514Z,84.36
2023-01-01T04:57:46.811Z,83.75
2023-01-01T04:59:50.013Z,84.26
2023-01-01T05:01:53.745Z,84.63
2023-01-01T05:03:57.984Z,84.51
2023-01-01T05:06:01.940Z,83.22
2023-01-01T05:08:05.164Z,82.83
2023-01-01T05:10:10.116Z,82.73
2023-01-01T05:12:13.125Z,81.44
2023-01-01T05:14:16.087Z,82.60
2023-01-01T05:16:21.111Z,82.86
2023-01-01T05:18:24.195Z,83.36
2023-01-01T05:20:27.251Z,84.50
2023-01-01T05:22:30.188Z,83.18
2023-01-01T05:24:36.420Z,85.18
2023-01-01T05:26:42.811Z,85.70
2023-01-01T05:28:46.455Z,86.05
2023-01-01T05:30:49.409Z,86.49
2023-01-01T05:32:52.529Z,84.69
2023-01-01T05:34:56.293Z,86.17
2023-01-01T05:36:59.405Z,87.24
2023-01-01T05:39:22.360Z,86.28
2023-01-01T05:41:26.306Z,86.92
2023-01-01T05:43:30.603Z,87.88
2023-01-01T05:45:34.186Z,86.45
2023-01-01T05:47:37.307Z,87.03
2023-01-01T05:49:40.363Z,85.89
2023-01-01T05:51:43.844Z,86.61
2023-01-01T05:53:47.027Z,86.44
2023-01-01T05:55:54.000Z,85.89
2023-01-01T05:57:57.072Z,87.48
2023-01-01T06:00:01.718Z,86.49
2023-01-01T06:02:05.051Z,88.24
2023-01-01T06:04:09.427Z,87.54
2023-01-01T06:06:14.755Z,88.78
2023-01-01T06:08:18.086Z,87.87
2023-01-01T06:10:22.183Z,89.68
2023-01-01T06:12:25.566Z,89.21
2023-01-01T06:14:28.568Z,90.59
2023-01-01T06:16:33.110Z,88.55
2023-01-01T06:18:36.878Z,90.25
2023-01-01T06:20:40.273Z,89.98
2023-01-01T06:22:43.331Z,90.63
2023-01-01T06:24:46.562Z,89.39
2023-01-01T06:26:49.646Z,89.44
2023-01-01T06:28:53.307Z,88.01
2023-01-01T06:30:56.382Z,89.68
2023-01-01T06:33:01.033Z,89.62
2023-01-01T06:35:04.112Z,89.28
2023-01-01T06:37:07.936Z,89.20
2023-01-01T06:39:11.165Z,88.62
2023-01-01T06:41:16.077Z,89.86
2023-01-01T06:43:19.110Z,89.95
2023-01-01T06:45:22.176Z,89.50
2023-01-01T06:47:25.175Z,89.83
2023-01-01T06:49:30.324Z,90.55
2023-01-01T06:51:36.756Z,90.03
2023-01-01T06:53:39.822Z,89.62
2023-01-01T06:55:54.960Z,90.25
2023-01-01T06:58:00.115Z,90.95
2023-01-01T07:00:03.399Z,90.35
2023-01-01T07:02:06.554Z,91.33
2023-01-01T07:04:13.293Z,90.48
2023-01-01T07:06:17.576Z,89.70
2023-01-01T07:08:20.631Z,91.16
2023-01-01T07:10:23.804Z,90.69
2023-01-01T07:12:27.093Z,90.90
2023-01-01T07:14:31.763Z,91.36
2023-01-01T07:16:34.932Z,91.52
2023-01-01T07:18:38.591Z,91.41
2023-01-01T07:20:43.628Z,91.71
2023-01-01T07:22:48.012Z,91.11
2023-01-01T07:24:51.087Z,91.83
2023-01-01T07:26:54.252Z,90.24
2023-01-01T07:29:04.635Z,90.05
2023-01-01T07:31:10.622Z,91.44
2023-01-01T07:33:15.026Z,89.86
2023-01-01T07:35:18.127Z,91.52
2023-01-01T07:37:25.300Z,90.87
2023-01-01T07:39:29.821Z,90.11
2023-01-01T07:41:32.795Z,88.91
2023-01-01T07:43:36.233Z,89.37
2023-01-01T07:45:39.308Z,90.95
2023-01-01T07:47:42.407Z,89.76
2023-01-01T07:49:45.494Z,89.90
2023-01-01T07:51:48.761Z,90.86
2023-01-01T07:53:52.158Z,90.72
2023-01-01T07:55:59.278Z,88.99
2023-01-01T07:58:05.571Z,88.86
2023-01-01T08:00:11.068Z,87.87
2023-01-01T08:02:19.324Z,88.51
2023-01-01T08:04:22.490Z,90.11
2023-01-01T08:06:32.072Z,88.10
2023-01-01T08:08:35.611Z,88.33
2023-01-01T08:10:39.461Z,88.88
2023-01-01T08:12:44.220Z,88.39
2023-01-01T08:14:47.900Z,88.30
2023-01-01T08:16:51.392Z,88.45
2023-01-01T08:18:54.793Z,88.35
2023-01-01T08:20:58.626Z,89.09
2023-01-01T08:23:07.054Z,88.68
2023-01-01T08:25:11.000Z,87.95
2023-01-01T08:27:15.202Z,88.02
2023-01-01T08:29:22.818Z,87.57
2023-01-01T08:31:26.558Z,88.03
2023-01-01T08:33:29.809Z,88.24
2023-01-01T08:40:54.341Z,86.79
2023-01-01T08:42:58.056Z,87.17
2023-01-01T08:45:02.670Z,86.87
2023-01-01T09:35:14.589Z,77.67
2023-01-01T09:37:26.064Z,77.11
2023-01-01T09:39:30.354Z,76.75
2023-01-01T09:41:44.612Z,77.95
2023-01-01T09:43:55.384Z,75.86
2023-01-01T09:46:00.728Z,74.01
2023-01-01T09:48:07.430Z,75.59
2023-01-01T09:50:16.467Z,74.92
2023-01-01T09:52:21.843Z,73.05
2023-01-01T09:54:30.188Z,74.01
2023-01-01T09:56:36.886Z,72.36
2023-01-01T09:58:40.478Z,72.20
2023-01-01T10:00:48.064Z,72.94
2023-01-01T10:03:07.522Z,72.31
2023-01-01T10:05:26.752Z,72.80
2023-01-01T10:07:38.012Z,72.25
2023-01-01T10:09:48.696Z,72.45
2023-01-01T10:11:57.975Z,71.05
2023-01-01T10:14:01.722Z,69.85
2023-01-01T10:16:09.568Z,71.42
2023-01-01T10:18:17.913Z,72.76
2023-01-01T10:20:26.606Z,70.63
2023-01-01T10:22:33.400Z,71.29
2023-01-01T10:24:43.029Z,70.64
2023-01-01T10:26:47.191Z,70.32
2023-01-01T10:28:56.483Z,70.49
2023-01-01T10:31:13.008Z,70.19
2023-01-01T10:33:17.771Z,70.90
2023-01-01T10:35:31.407Z,70.96
2023-01-01T10:37:37.413Z,69.08
2023-01-01T10:39:40.769Z,69.37
2023-01-01T10:41:47.554Z,69.42
2023-01-01T10:43:52.792Z,68.85
2023-01-01T10:45:58.211Z,70.58
2023-01-01T10:48:15.269Z,70.29
2023-01-01T10:50:19.644Z,69.57
2023-01-01T10:52:27.881Z,70.48
2023-01-01T10:54:35.046Z,68.42
2023-01-01T10:56:43.400Z,69.80
2023-01-01T10:58:48.281Z,69.43
2023-01-01T11:00:59.438Z,69.11
2023-01-01T11:03:14.034Z,69.08
2023-01-01T11:05:22.026Z,69.84
2023-01-01T11:07:30.292Z,70.13
2023-01-01T11:09:37.132Z,70.00
2023-01-01T11:11:43.329Z,69.35
2023-01-01T11:13:50.350Z,69.56
2023-01-01T11:15:53.611Z,69.18
2023-01-01T11:18:04.945Z,70.38
2023-01-01T11:20:08.867Z,68.47
2023-01-01T11:22:38.425Z,69.60
2023-01-01T11:24:41.736Z,68.75
2023-01-01T11:26:50.529Z,69.68
2023-01-01T11:29:01.976Z,68.44
2023-01-01T11:31:08.924Z,68.57
2023-01-01T11:33:16.571Z,69.65
2023-01-01T11:35:23.400Z,68.47
2023-01-01T11:37:29.626Z,69.38
2023-01-01T11:39:37.312Z,68.49
2023-01-01T11:41:44.803Z,68.79
2023-01-01T11:43:49.992Z,68.50
2023-01-01T11:45:54.913Z,67.89
2023-01-01T11:48:00.383Z,67.88
2023-01-01T11:50:09.204Z,67.74
2023-01-01T11:52:30.626Z,66.84
2023-01-01T11:54:37.554Z,67.50
2023-01-01T11:56:41.312Z,67.53
2023-01-01T11:58:52.382Z,67.91
2023-01-01T12:00:58.917Z,69.20
2023-01-01T12:03:06.927Z,68.75
2023-01-01T12:05:17.836Z,67.10
2023-01-01T12:07:25.780Z,67.35
2023-01-01T12:09:33.657Z,67.24
2023-01-01T12:11:43.395Z,67.36
2023-01-01T12:13:50.918Z,68.09
2023-01-01T12:16:01.850Z,67.35
2023-01-01T12:18:08.883Z,67.68
2023-01-01T12:20:14.218Z,68.28
2023-01-01T12:22:20.135Z,68.57
2023-01-01T12:24:23.446Z,68.98
2023-01-01T12:26:30.118Z,68.07
2023-01-01T12:28:41.971Z,68.54
2023-01-01T12:30:51.081Z,69.36
2023-01-01T12:33:19.209Z,67.65
2023-01-01T12:35:29.214Z,67.97
2023-01-01T12:37:40.871Z,67.84
2023-01-01T12:40:19.724Z,68.10
2023-01-01T12:42:46.300Z,68.04
2023-01-01T12:45:04.506Z,67.49
2023-01-01T12:47:13.481Z,67.65
2023-01-01T12:49:37.290Z,66.13
2023-01-01T12:51:59.714Z,67.64
2023-01-01T12:54:41.704Z,66.12
2023-01-01T12:56:47.567Z,65.41
2023-01-01T12:58:53.795Z,67.08
2023-01-01T13:01:00.995Z,66.84
2023-01-01T13:03:09.061Z,65.91
2023-01-01T13:05:21.541Z,68.31
2023-01-01T13:07:29.015Z,68.17
2023-01-01T13:09:34.907Z,69.31
2023-01-01T13:11:44.692Z,68.19
2023-01-01T13:13:48.304Z,69.20
2023-01-01T13:15:53.813Z,68.11
2023-01-01T13:17:58.585Z,69.29
2023-01-01T13:20:16.889Z,68.41
2023-01-01T13:22:42.993Z,67.76
2023-01-01T13:25:04.520Z,66.47
2023-01-01T13:27:11.003Z,66.80
2023-01-01T13:29:36.513Z,67.30
2023-01-01T13:32:01.987Z,67.28
2023-01-01T13:34:46.671Z,66.07
2023-01-01T13:36:51.149Z,66.44
2023-01-01T13:38:57.377Z,65.51
2023-01-01T13:41:00.788Z,65.62
2023-01-01T13:43:08.151Z,65.11
2023-01-01T13:45:36.555Z,65.79
2023-01-01T13:47:54.456Z,65.17
2023-01-01T13:50:06.148Z,65.36
2023-01-01T13:52:28.806Z,65.72
2023-01-01T13:54:58.137Z,64.89
2023-01-01T13:57:04.477Z,65.61
2023-01-01T13:59:25.302Z,64.77
2023-01-01T14:01:44.675Z,65.54
2023-01-01T14:03:51.067Z,65.71
2023-01-01T14:05:58.198Z,65.81
2023-01-01T14:08:04.271Z,65.97
2023-01-01T14:10:20.667Z,66.05
2023-01-01T14:12:23.942Z,65.47
2023-01-01T14:14:28.631Z,65.35
2023-01-01T14:16:31.973Z,65.90
2023-01-01T14:18:38.157Z,66.11
2023-01-01T14:20:47.145Z,65.57
2023-01-01T14:22:53.019Z,65.80
2023-01-01T14:25:07.232Z,65.32
2023-01-01T14:27:22.881Z,65.34
2023-01-01T14:29:32.087Z,66.04
2023-01-01T14:31:45.070Z,66.22
2023-01-01T14:33:50.559Z,65.81
2023-01-01T14:35:56.260Z,65.91
2023-01-01T14:38:27.384Z,66.72
2023-01-01T14:40:33.436Z,67.12
2023-01-01T14:42:39.275Z,68.04
2023-01-01T14:44:45.957Z,67.80
2023-01-01T14:46:55.668Z,68.10
2023-01-01T14:49:12.389Z,68.30
2023-01-01T14:51:21.222Z,69.01
2023-01-01T14:53:32.725Z,68.54
2023-01-01T14:55:43.568Z,68.80
2023-01-01T14:57:52.285Z,68.16
2023-01-01T14:59:59.817Z,68.89
2023-01-01T15:02:14.396Z,69.44
2023-01-01T15:04:24.342Z,70.04
2023-01-01T15:06:32.687Z,70.10
2023-01-01T15:08:36.606Z,68.79
2023-01-01T15:10:56.528Z,68.79
2023-01-01T15:13:26.993Z,69.88
2023-01-01T15:15:42.248Z,69.79
2023-01-01T15:17:57.521Z,68.95
2023-01-01T15:20:21.333Z,69.24
2023-01-01T15:22:30.247Z,70.95
2023-01-01T15:24:35.981Z,71.24
2023-01-01T15:27:03.584Z,69.50
2023-01-01T15:29:45.089Z,70.99
2023-01-01T15:38:37.803Z,70.50
2023-01-01T15:40:53.208Z,71.13
2023-01-01T15:44:31.833Z,71.11
2023-01-01T15:46:32.337Z,72.00
2023-01-01T15:49:57.879Z,70.38
2023-01-01T15:52:11.994Z,71.30
2023-01-01T15:54:30.175Z,72.79
2023-01-01T15:57:27.217Z,74.96
2023-01-01T16:00:08.560Z,75.65
2023-01-01T16:02:42.862Z,77.85
2023-01-01T16:05:31.698Z,76.12
2023-01-01T16:07:47.234Z,76.81
2023-01-01T16:10:02.158Z,76.79
2023-01-01T16:12:16.434Z,77.64
2023-01-01T16:14:21.250Z,78.77
2023-01-01T16:16:37.128Z,78.94
2023-01-01T16:19:05.995Z,79.68
2023-01-01T16:21:30.010Z,79.13
2023-01-01T16:23:58.332Z,79.69
2023-01-01T16:26:44.444Z,79.12
2023-01-01T16:28:51.190Z,80.68
2023-01-01T16:30:55.390Z,81.06
2023-01-01T16:33:06.903Z,80.32
2023-01-01T16:38:13.543Z,81.34
2023-01-01T16:42:54.241Z,81.37
2023-01-01T16:45:00.449Z,81.90
2023-01-01T16:51:58.041Z,81.81
2023-01-01T16:57:40.685Z,83.10
2023-01-01T17:00:01.692Z,82.98
2023-01-01T17:02:28.434Z,83.40
2023-01-01T17:04:50.051Z,83.41
2023-01-01T17:07:14.202Z,83.51
2023-01-01T17:12:34.121Z,84.35
2023-01-01T17:14:43.500Z,84.14
2023-01-01T17:17:02.836Z,84.73
2023-01-01T17:19:24.363Z,85.11
2023-01-01T17:21:29.183Z,84.30
2023-01-01T17:24:03.882Z,84.84
2023-01-01T17:26:19.798Z,84.95
2023-01-01T17:28:30.260Z,84.84
2023-01-01T17:31:12.249Z,85.16
2023-01-01T17:34:11.885Z,85.04
2023-01-01T17:36:28.868Z,85.45
2023-01-01T17:38:38.607Z,85.51
2023-01-01T17:40:54.177Z,85.58
2023-01-01T17:43:21.757Z,84.95
2023-01-01T17:48:16.274Z,85.50
2023-01-01T17:50:29.702Z,85.67
2023-01-01T17:52:34.047Z,86.44
2023-01-01T17:54:40.852Z,86.30
2023-01-01T17:57:07.527Z,86.09
2023-01-01T17:59:25.849Z,85.99
2023-01-01T18:01:40.670Z,86.84
2023-01-01T18:04:00.088Z,86.73
2023-01-01T18:06:17.346Z,87.42
2023-01-01T18:08:53.898Z,87.01
2023-01-01T18:14:28.557Z,87.66
2023-01-01T18:17:27.734Z,88.10
2023-01-01T18:19:32.369Z,88.12
2023-01-01T18:21:43.432Z,86.87
2023-01-01T18:23:51.921Z,86.98
2023-01-01T18:26:26.145Z,87.78
2023-01-01T18:28:48.128Z,87.82
2023-01-01T18:31:07.025Z,87.45
2023-01-01T18:33:45.238Z,87.12
2023-01-01T18:35:57.848Z,87.14
2023-01-01T18:38:39.479Z,87.38
2023-01-01T18:41:19.782Z,87.05
2023-01-01T18:43:28.508Z,86.94
2023-01-01T18:45:38.852Z,88.34
2023-01-01T18:47:46.464Z,87.66
2023-01-01T18:50:31.715Z,87.20
2023-01-01T18:52:37.733Z,87.73
2023-01-01T18:54:44.626Z,88.17
2023-01-01T18:56:50.905Z,87.54
2023-01-01T18:59:36.046Z,88.75
2023-01-01T19:01:45.068Z,86.75
2023-01-01T19:03:53.088Z,89.15
2023-01-01T19:05:58.331Z,88.89
2023-01-01T19:08:12.199Z,87.25
2023-01-01T19:10:16.700Z,88.12
2023-01-01T19:12:20.756Z,88.60
2023-01-01T19:14:27.769Z,88.73
2023-01-01T19:16:33.855Z,87.80
2023-01-01T19:18:39.280Z,88.26
2023-01-01T19:20:50.816Z,88.52
2023-01-01T19:22:58.215Z,90.12
2023-01-01T19:25:55.696Z,88.93
2023-01-01T19:28:45.999Z,88.94
2023-01-01T19:31:09.935Z,88.26
2023-01-01T19:33:29.663Z,88.05
2023-01-01T19:36:05.211Z,89.56
2023-01-01T19:38:12.440Z,88.05
2023-01-01T19:40:17.958Z,88.80
2023-01-01T19:42:25.417Z,89.11
2023-01-01T19:44:34.648Z,89.11
2023-01-01T19:46:43.549Z,89.57
2023-01-01T19:48:53.330Z,89.61
2023-01-01T19:51:10.313Z,89.53
2023-01-01T19:53:22.194Z,89.00
2023-01-01T19:55:27.932Z,88.89
2023-01-01T19:57:33.718Z,88.40
2023-01-01T19:59:40.917Z,90.06
2023-01-01T20:02:09.678Z,90.19
2023-01-01T20:04:17.716Z,89.40
2023-01-01T20:06:31.503Z,89.58
2023-01-01T20:08:41.141Z,88.52
2023-01-01T20:10:49.611Z,88.04
2023-01-01T20:12:56.870Z,88.71
2023-01-01T20:15:06.561Z,90.18
2023-01-01T20:17:41.396Z,90.54
2023-01-01T20:19:48.774Z,90.35
2023-01-01T20:22:19.283Z,89.30
2023-01-01T20:24:34.964Z,91.10
2023-01-01T20:26:48.562Z,90.56
2023-01-01T20:29:14.150Z,90.27
2023-01-01T20:31:22.858Z,90.76
2023-01-01T20:33:32.408Z,91.09
2023-01-01T20:35:55.151Z,90.05
2023-01-01T20:38:01.617Z,89.78
2023-01-01T20:40:14.733Z,91.02
2023-01-01T20:42:26.773Z,91.28
2023-01-01T20:44:32.596Z,91.60
2023-01-01T20:46:52.333Z,91.14
2023-01-01T20:48:58.343Z,91.08
2023-01-01T20:51:09.200Z,90.90
2023-01-01T20:53:47.048Z,90.29
2023-01-01T20:56:05.834Z,89.39
2023-01-01T20:58:10.498Z,90.87
2023-01-01T21:00:17.005Z,92.38
2023-01-01T21:02:38.580Z,91.39
2023-01-01T21:04:52.111Z,91.96
2023-01-01T21:06:59.761Z,92.61
2023-01-01T21:09:15.801Z,91.79
2023-01-01T21:11:25.611Z,92.42
2023-01-01T21:13:34.012Z,92.16
2023-01-01T21:15:46.194Z,92.16
2023-01-01T21:17:59.377Z,92.38
2023-01-01T21:20:09.129Z,93.00
2023-01-01T21:22:16.948Z,92.56
2023-01-01T21:24:37.088Z,92.01
2023-01-01T21:26:47.519Z,91.58
2023-01-01T21:29:00.815Z,92.48
2023-01-01T21:31:17.174Z,92.48
2023-01-01T21:33:33.657Z,92.24
2023-01-01T21:35:43.299Z,91.54
2023-01-01T21:38:04.727Z,91.85
2023-01-01T21:41:06.796Z,92.22
2023-01-01T21:43:38.663Z,91.45
2023-01-01T21:45:49.659Z,92.56
2023-01-01T21:48:29.824Z,92.67
2023-01-01T21:51:50.187Z,92.96
2023-01-01T21:54:20.343Z,92.25
2023-01-01T21:59:47.570Z,92.37
2023-01-01T22:02:41.323Z,93.21
2023-01-01T22:05:01.208Z,92.78
2023-01-01T22:07:56.418Z,92.69
2023-01-01T22:13:20.137Z,93.27
2023-01-01T22:15:41.815Z,92.23
2023-01-01T22:17:55.117Z,92.86
2023-01-01T22:20:03.182Z,92.68
2023-01-01T22:22:13.768Z,92.12
2023-01-01T22:24:34.109Z,91.71
2023-01-01T22:26:39.238Z,91.96
2023-01-01T22:28:46.385Z,92.63
2023-01-01T22:30:55.435Z,92.54
2023-01-01T22:33:02.362Z,92.53
2023-01-01T22:35:15.480Z,92.07
2023-01-01T22:37:29.072Z,92.32
2023-01-01T22:39:36.972Z,91.86
2023-01-01T22:41:44.012Z,92.42
2023-01-01T22:43:50.204Z,92.13
2023-01-01T22:45:58.851Z,91.49
2023-01-01T22:48:20.149Z,92.04
2023-01-01T22:50:30.116Z,92.13
2023-01-01T22:52:48.155Z,92.89
2023-01-01T22:54:52.694Z,91.96
2023-01-01T22:57:49.655Z,92.55
2023-01-01T23:00:03.089Z,92.20
2023-01-01T23:05:50.149Z,92.00
2023-01-01T23:08:00.311Z,91.82
2023-01-01T23:10:43.670Z,91.87
2023-01-01T23:16:08.365Z,92.15
2023-01-01T23:18:27.282Z,92.20
2023-01-01T23:20:44.304Z,92.94
2023-01-01T23:23:15.366Z,92.26
2023-01-01T23:25:28.445Z,92.14
2023-01-01T23:27:44.243Z,91.75
2023-01-01T23:30:36.664Z,92.47
2023-01-01T23:33:16.240Z,91.99
2023-01-01T23:35:29.370Z,93.02
2023-01-01T23:37:48.867Z,92.31
2023-01-01T23:40:01.079Z,92.53
2023-01-01T23:42:49.594Z,93.10
2023-01-01T23:45:05.938Z,93.28
2023-01-01T23:47:09.200Z,93.81
2023-01-01T23:49:28.789Z,92.85
2023-01-01T23:55:17.479Z,93.06
